createdAt,value
2022-12-11T00:00:23.714Z,65.60
2022-12-11T00:10:23.755Z,60.20
2022-12-11T00:20:23.733Z,63.00
2022-12-11T00:30:23.732Z,59.40
2022-12-11T00:40:23.778Z,53.70
2022-12-11T00:50:23.776Z,59.70
2022-12-11T01:00:23.750Z,55.30
2022-12-11T01:10:23.786Z,56.50
2022-12-11T01:20:23.823Z,51.60
2022-12-11T01:30:23.776Z,54.10
2022-12-11T01:50:23.780Z,51.40
2022-12-11T02:00:23.814Z,56.70
2022-12-11T02:10:23.802Z,55.20
2022-12-11T02:20:23.825Z,52.80
2022-12-11T02:30:23.791Z,56.40
2022-12-11T02:40:23.781Z,56.40
2022-12-11T02:50:23.799Z,52.40
2022-12-11T03:00:23.770Z,58.40
2022-12-11T03:10:23.785Z,46.10
2022-12-11T03:20:23.817Z,56.00
2022-12-11T03:30:23.871Z,57.00
2022-12-11T03:40:23.792Z,52.40
2022-12-11T03:50:23.819Z,57.60
2022-12-11T04:00:23.933Z,52.30
2022-12-11T04:10:23.818Z,54.10
2022-12-11T04:20:23.803Z,51.70
2022-12-11T04:30:26.920Z,46.20
2022-12-11T04:40:23.824Z,51.60
2022-12-11T04:50:23.839Z,51.90
2022-12-11T05:00:23.924Z,44.60
2022-12-11T05:10:23.834Z,44.00
2022-12-11T05:20:23.818Z,50.90
2022-12-11T05:30:23.820Z,43.90
2022-12-11T05:40:23.931Z,38.60
2022-12-11T05:50:23.949Z,38.00
2022-12-11T06:00:23.849Z,35.60
2022-12-11T06:10:23.834Z,43.30
2022-12-11T06:20:23.830Z,42.50
2022-12-11T06:30:23.830Z,40.50
2022-12-11T06:40:23.884Z,37.60
2022-12-11T06:50:23.847Z,32.40
2022-12-11T07:00:23.880Z,39.50
2022-12-11T07:10:23.894Z,37.70
2022-12-11T07:20:23.851Z,45.40
2022-12-11T07:30:23.972Z,34.80
2022-12-11T07:40:23.859Z,36.40
2022-12-11T07:50:24.002Z,38.00
2022-12-11T08:00:23.907Z,36.70
2022-12-11T08:10:23.876Z,40.80
2022-12-11T08:20:23.869Z,35.50
2022-12-11T08:30:23.958Z,41.30
2022-12-11T08:40:24.030Z,38.50
2022-12-11T08:50:23.954Z,36.60
2022-12-11T09:00:23.884Z,29.90
2022-12-11T09:10:23.892Z,33.90
2022-12-11T09:20:23.940Z,31.80
2022-12-11T09:30:23.910Z,29.00
2022-12-11T09:40:23.918Z,33.10
2022-12-11T09:50:23.940Z,38.90
2022-12-11T10:00:23.936Z,35.20
2022-12-11T10:10:23.934Z,35.70
2022-12-11T10:20:23.914Z,34.40
2022-12-11T10:30:23.934Z,26.20
2022-12-11T10:40:23.919Z,24.90
2022-12-11T10:50:23.920Z,23.90
2022-12-11T11:00:23.911Z,35.90
2022-12-11T11:10:23.956Z,29.60
2022-12-11T11:20:23.959Z,29.10
2022-12-11T11:30:23.959Z,25.50
2022-12-11T11:40:23.955Z,23.40
2022-12-11T11:50:23.932Z,28.50
2022-12-11T12:00:27.492Z,28.60
2022-12-11T12:10:24.116Z,24.30
2022-12-11T12:20:23.944Z,24.20
2022-12-11T12:30:24.366Z,23.30
2022-12-11T12:40:23.977Z,20.90
2022-12-11T12:50:23.977Z,22.20
2022-12-11T13:00:23.999Z,24.70
2022-12-11T13:10:23.962Z,16.70
2022-12-11T13:20:23.970Z,20.60
2022-12-11T13:30:23.988Z,22.50
2022-12-11T13:40:23.991Z,23.10
2022-12-11T13:50:24.020Z,19.70
2022-12-11T14:00:24.013Z,22.50
2022-12-11T14:10:24.126Z,24.40
2022-12-11T14:20:24.010Z,23.90
2022-12-11T14:30:24.003Z,25.60
2022-12-11T14:40:24.030Z,21.50
2022-12-11T14:50:24.021Z,24.40
2022-12-11T15:00:24.029Z,20.40
2022-12-11T15:10:24.008Z,24.40
2022-12-11T15:20:24.001Z,22.00
2022-12-11T15:30:24.029Z,20.10
2022-12-11T15:40:23.992Z,25.60
2022-12-11T15:50:24.006Z,25.40
2022-12-11T16:00:24.096Z,22.70
2022-12-11T16:10:24.157Z,28.60
2022-12-11T16:20:24.128Z,22.80
2022-12-11T16:30:24.040Z,22.90
2022-12-11T16:40:24.032Z,23.10
2022-12-11T16:50:24.055Z,19.30
2022-12-11T17:00:24.029Z,25.20
2022-12-11T17:10:24.044Z,17.60
2022-12-11T17:20:24.075Z,19.30
2022-12-11T17:30:24.114Z,28.10
2022-12-11T17:40:24.108Z,24.20
2022-12-11T18:00:24.621Z,24.90
2022-12-11T18:10:24.098Z,23.90
2022-12-11T18:20:24.209Z,28.10
2022-12-11T18:30:24.223Z,26.40
2022-12-11T18:40:24.201Z,23.40
2022-12-11T18:50:24.167Z,23.60
2022-12-11T19:00:24.259Z,27.10
2022-12-11T19:10:24.192Z,31.40
2022-12-11T19:20:48.013Z,24.60
2022-12-11T19:30:24.156Z,26.80
2022-12-11T19:40:24.305Z,17.70
2022-12-11T19:50:24.406Z,18.30
2022-12-11T20:00:24.151Z,27.70
2022-12-11T20:10:24.158Z,27.90
2022-12-11T20:20:24.162Z,26.70
2022-12-11T20:30:24.138Z,29.50
2022-12-11T20:40:24.173Z,22.10
2022-12-11T20:50:24.192Z,27.20
2022-12-11T21:00:24.183Z,26.80
2022-12-11T21:10:24.134Z,33.20
2022-12-11T21:20:24.185Z,32.60
2022-12-11T21:30:24.183Z,34.60
2022-12-11T21:40:24.164Z,33.30
2022-12-11T21:50:24.122Z,33.30
2022-12-11T22:00:24.158Z,33.10
2022-12-11T22:10:24.161Z,34.60
2022-12-11T22:20:24.175Z,28.40
2022-12-11T22:30:24.162Z,33.40
2022-12-11T22:40:24.149Z,35.20
2022-12-11T22:50:24.168Z,35.50
2022-12-11T23:00:24.147Z,33.50
2022-12-11T23:10:24.164Z,34.40
2022-12-11T23:20:24.189Z,34.00
2022-12-11T23:30:24.194Z,32.40
2022-12-11T23:40:24.158Z,29.90
2022-12-11T23:50:24.163Z,29.90
